createdAt,value
2023-01-09T00:02:21.436Z,0.80
2023-01-09T00:04:47.950Z,1.03
2023-01-09T00:07:14.461Z,0.80
2023-01-09T00:09:40.987Z,0.50
2023-01-09T00:12:07.553Z,0.70
2023-01-09T00:14:34.096Z,1.00
2023-01-09T00:17:00.631Z,0.60
2023-01-09T00:19:27.131Z,0.57
2023-01-09T00:21:53.608Z,0.50
2023-01-09T00:24:20.088Z,0.57
2023-01-09T00:26:46.598Z,0.40
2023-01-09T00:29:13.088Z,0.40
2023-01-09T00:31:39.608Z,0.40
2023-01-09T00:34:06.086Z,0.40
2023-01-09T00:36:32.582Z,0.53
2023-01-09T00:38:59.091Z,0.83
2023-01-09T00:41:25.585Z,0.40
2023-01-09T00:43:52.225Z,0.60
2023-01-09T00:46:18.819Z,0.50
2023-01-09T00:48:45.317Z,0.40
2023-01-09T00:51:11.864Z,0.50
2023-01-09T00:53:38.325Z,0.40
2023-01-09T00:56:04.819Z,0.60
2023-01-09T00:58:31.295Z,0.40
2023-01-09T01:00:57.940Z,0.40
2023-01-09T01:03:24.501Z,0.40
2023-01-09T01:06:09.915Z,0.50
2023-01-09T01:08:36.392Z,0.40
2023-01-09T01:11:02.883Z,0.40
2023-01-09T01:13:29.394Z,0.30
2023-01-09T01:15:55.889Z,0.30
2023-01-09T01:18:22.406Z,0.40
2023-01-09T01:20:48.915Z,0.53
2023-01-09T01:23:15.428Z,0.30
2023-01-09T01:25:41.921Z,0.40
2023-01-09T01:28:08.459Z,0.40
2023-01-09T01:30:34.951Z,0.37
2023-01-09T01:33:01.497Z,0.50
2023-01-09T01:35:27.995Z,0.40
2023-01-09T01:37:54.767Z,0.33
2023-01-09T01:40:21.366Z,0.40
2023-01-09T01:42:47.944Z,0.40
2023-01-09T01:45:14.447Z,0.40
2023-01-09T01:47:40.959Z,0.40
2023-01-09T01:50:07.466Z,0.40
2023-01-09T01:52:33.973Z,0.40
2023-01-09T01:55:00.530Z,0.40
2023-01-09T01:57:27.063Z,0.37
2023-01-09T01:59:53.529Z,0.43
2023-01-09T02:02:20.207Z,0.40
2023-01-09T02:04:46.731Z,0.40
2023-01-09T02:07:13.221Z,0.50
2023-01-09T02:09:39.709Z,0.50
2023-01-09T02:12:06.232Z,0.47
2023-01-09T02:14:32.845Z,0.40
2023-01-09T02:16:59.358Z,0.30
2023-01-09T02:19:25.845Z,0.40
2023-01-09T02:21:52.374Z,0.40
2023-01-09T02:24:18.862Z,0.40
2023-01-09T02:26:45.397Z,0.40
2023-01-09T02:29:11.872Z,0.50
2023-01-09T02:31:39.528Z,0.50
2023-01-09T02:34:06.046Z,0.50
2023-01-09T02:36:32.554Z,0.50
2023-01-09T02:38:59.056Z,0.40
2023-01-09T02:41:25.629Z,0.50
2023-01-09T02:43:52.117Z,0.50
2023-01-09T02:46:19.240Z,0.60
2023-01-09T02:48:45.695Z,0.73
2023-01-09T02:51:12.213Z,0.60
2023-01-09T02:53:38.672Z,0.70
2023-01-09T02:56:05.203Z,0.70
2023-01-09T02:58:33.696Z,0.50
2023-01-09T03:01:00.251Z,0.77
2023-01-09T03:03:27.455Z,0.67
2023-01-09T03:05:53.992Z,0.67
2023-01-09T03:08:20.453Z,0.70
2023-01-09T03:10:47.119Z,0.80
2023-01-09T03:13:13.578Z,0.70
2023-01-09T03:15:40.068Z,0.60
2023-01-09T03:18:06.564Z,0.90
2023-01-09T03:20:33.037Z,0.60
2023-01-09T03:22:59.572Z,0.83
2023-01-09T03:25:26.057Z,0.93
2023-01-09T03:27:53.279Z,0.70
2023-01-09T03:30:19.749Z,0.70
2023-01-09T03:32:46.229Z,0.90
2023-01-09T03:35:12.720Z,0.83
2023-01-09T03:37:39.349Z,0.90
2023-01-09T03:40:05.837Z,1.03
2023-01-09T03:42:32.347Z,0.97
2023-01-09T03:44:58.814Z,1.00
2023-01-09T03:47:25.379Z,1.63
2023-01-09T03:49:51.940Z,1.27
2023-01-09T03:52:18.460Z,1.20
2023-01-09T03:54:44.973Z,1.10
2023-01-09T03:57:11.523Z,1.60
2023-01-09T03:59:38.064Z,0.90
2023-01-09T04:02:04.667Z,1.50
2023-01-09T04:04:31.272Z,1.47
2023-01-09T04:06:57.793Z,2.10
2023-01-09T04:09:24.269Z,1.47
2023-01-09T04:11:50.785Z,1.77
2023-01-09T04:14:17.329Z,1.40
2023-01-09T04:16:43.922Z,1.80
2023-01-09T04:19:10.436Z,2.00
2023-01-09T04:21:36.954Z,1.80
2023-01-09T04:24:03.605Z,1.97
2023-01-09T04:26:30.104Z,2.13
2023-01-09T04:28:56.752Z,2.00
2023-01-09T04:31:23.333Z,1.90
2023-01-09T04:33:49.837Z,1.90
2023-01-09T04:36:16.330Z,2.20
2023-01-09T04:38:42.807Z,1.30
2023-01-09T04:41:09.324Z,1.90
2023-01-09T04:43:35.796Z,1.90
2023-01-09T04:46:02.324Z,2.20
2023-01-09T04:48:28.867Z,2.20
2023-01-09T04:50:55.332Z,3.20
2023-01-09T04:53:21.896Z,3.33
2023-01-09T04:55:48.384Z,2.93
2023-01-09T04:58:14.885Z,3.10
2023-01-09T05:00:41.360Z,3.67
2023-01-09T05:03:07.905Z,3.83
2023-01-09T05:05:34.485Z,3.40
2023-01-09T05:08:01.004Z,3.43
2023-01-09T05:10:27.508Z,2.67
2023-01-09T05:12:54.047Z,3.17
2023-01-09T05:15:21.541Z,3.43
2023-01-09T05:17:48.083Z,3.03
2023-01-09T05:20:14.619Z,3.47
2023-01-09T05:22:41.131Z,2.70
2023-01-09T05:25:07.600Z,2.83
2023-01-09T05:27:34.117Z,2.97
2023-01-09T05:30:00.640Z,2.77
2023-01-09T05:32:27.188Z,3.50
2023-01-09T05:34:53.676Z,3.13
2023-01-09T05:37:20.214Z,2.83
2023-01-09T05:39:46.676Z,2.90
2023-01-09T05:42:13.191Z,2.87
2023-01-09T05:44:39.693Z,2.53
2023-01-09T05:47:06.255Z,2.80
2023-01-09T05:49:32.717Z,3.07
2023-01-09T05:51:59.282Z,2.27
2023-01-09T05:54:25.802Z,1.70
2023-01-09T05:56:52.303Z,1.63
2023-01-09T05:59:19.031Z,1.37
2023-01-09T06:01:45.605Z,2.00
2023-01-09T06:04:12.109Z,1.50
2023-01-09T06:06:39.778Z,1.30
2023-01-09T06:09:06.299Z,1.60
2023-01-09T06:11:35.583Z,1.40
2023-01-09T06:14:02.072Z,1.47
2023-01-09T06:16:28.565Z,1.77
2023-01-09T06:18:55.055Z,1.17
2023-01-09T06:21:21.602Z,1.53
2023-01-09T06:23:48.101Z,1.50
2023-01-09T06:26:14.603Z,1.53
2023-01-09T06:28:41.423Z,1.73
2023-01-09T06:31:08.620Z,2.17
2023-01-09T06:33:35.201Z,2.03
2023-01-09T06:36:01.696Z,1.60
2023-01-09T06:38:28.251Z,1.50
2023-01-09T06:40:55.032Z,1.87
2023-01-09T06:43:21.576Z,1.33
2023-01-09T06:45:48.216Z,1.40
2023-01-09T06:48:14.753Z,1.27
2023-01-09T06:50:41.283Z,1.10
2023-01-09T06:53:07.946Z,1.40
2023-01-09T06:55:34.543Z,0.90
2023-01-09T06:58:01.012Z,1.20
2023-01-09T07:00:27.504Z,0.83
2023-01-09T07:02:54.263Z,0.93
2023-01-09T07:05:20.748Z,1.10
2023-01-09T07:07:47.330Z,0.93
2023-01-09T07:10:13.907Z,0.87
2023-01-09T07:12:40.389Z,0.80
2023-01-09T07:15:06.895Z,0.83
2023-01-09T07:17:33.395Z,0.60
2023-01-09T07:19:59.904Z,1.40
2023-01-09T07:22:26.390Z,0.80
2023-01-09T07:24:52.878Z,1.10
2023-01-09T07:27:19.424Z,1.10
2023-01-09T07:29:45.892Z,1.00
2023-01-09T07:32:12.428Z,0.73
2023-01-09T07:34:38.901Z,1.00
2023-01-09T07:37:05.398Z,0.80
2023-01-09T07:39:31.925Z,0.83
2023-01-09T07:41:58.418Z,0.90
2023-01-09T07:44:24.923Z,1.20
2023-01-09T07:46:51.395Z,1.17
2023-01-09T07:49:17.869Z,0.93
2023-01-09T07:51:45.016Z,1.03
2023-01-09T07:54:12.478Z,1.20
2023-01-09T07:56:39.025Z,1.07
2023-01-09T07:59:05.494Z,1.13
2023-01-09T08:01:32.154Z,1.20
2023-01-09T08:03:58.738Z,1.10
2023-01-09T08:06:25.241Z,0.77
2023-01-09T08:08:51.756Z,0.97
2023-01-09T08:11:18.251Z,0.93
2023-01-09T08:13:44.762Z,0.80
2023-01-09T08:16:11.363Z,1.03
2023-01-09T08:18:37.918Z,1.50
2023-01-09T08:21:04.465Z,0.90
2023-01-09T08:23:30.931Z,1.23
2023-01-09T08:25:57.477Z,0.97
2023-01-09T08:28:23.975Z,1.30
2023-01-09T08:30:50.523Z,1.07
2023-01-09T08:33:17.125Z,0.80
2023-01-09T08:35:44.051Z,1.10
2023-01-09T08:38:11.005Z,0.80
2023-01-09T08:40:37.755Z,0.77
2023-01-09T08:43:23.158Z,1.10
2023-01-09T08:46:08.535Z,1.30
2023-01-09T08:48:35.059Z,1.70
2023-01-09T08:51:02.306Z,0.77
2023-01-09T08:53:29.506Z,1.57
2023-01-09T08:55:56.026Z,0.90
2023-01-09T08:58:22.494Z,1.00
2023-01-09T09:00:49.044Z,0.80
2023-01-09T09:03:15.512Z,0.83
2023-01-09T09:05:42.023Z,0.87
2023-01-09T09:08:08.645Z,0.70
2023-01-09T09:10:35.158Z,0.93
2023-01-09T09:13:01.697Z,0.50
2023-01-09T09:15:28.262Z,0.80
2023-01-09T09:17:54.852Z,0.90
2023-01-09T09:20:21.372Z,0.60
2023-01-09T09:22:47.844Z,0.90
2023-01-09T09:25:14.338Z,0.70
2023-01-09T09:27:40.898Z,1.10
2023-01-09T09:30:07.365Z,0.60
2023-01-09T09:32:33.896Z,1.23
2023-01-09T09:35:00.388Z,0.87
2023-01-09T09:37:26.923Z,0.80
2023-01-09T09:39:53.448Z,0.70
2023-01-09T09:42:38.871Z,0.60
2023-01-09T09:45:05.385Z,0.50
2023-01-09T09:47:31.916Z,0.70
2023-01-09T09:49:58.397Z,0.40
2023-01-09T09:52:24.900Z,0.60
2023-01-09T09:54:52.095Z,0.80
2023-01-09T09:57:18.612Z,0.87
2023-01-09T09:59:45.123Z,0.60
2023-01-09T10:02:11.645Z,0.77
2023-01-09T10:04:38.153Z,0.70
2023-01-09T10:07:06.659Z,0.50
2023-01-09T10:09:33.181Z,0.73
2023-01-09T10:11:59.771Z,0.40
2023-01-09T10:14:26.292Z,0.50
2023-01-09T10:16:52.813Z,0.50
2023-01-09T10:19:19.349Z,0.50
2023-01-09T10:21:45.939Z,0.53
2023-01-09T10:24:12.431Z,0.70
2023-01-09T10:26:41.626Z,0.60
2023-01-09T10:29:08.274Z,0.60
2023-01-09T10:31:34.831Z,0.73
2023-01-09T10:34:01.490Z,0.50
2023-01-09T10:36:28.061Z,0.40
2023-01-09T10:38:54.535Z,0.50
2023-01-09T10:41:21.109Z,0.43
2023-01-09T10:43:47.660Z,0.60
2023-01-09T10:46:14.210Z,0.50
2023-01-09T10:48:40.896Z,0.60
2023-01-09T10:51:07.393Z,0.60
2023-01-09T10:53:33.909Z,0.60
2023-01-09T10:56:00.397Z,0.53
2023-01-09T10:58:27.283Z,0.63
2023-01-09T11:00:53.769Z,0.67
2023-01-09T11:03:20.337Z,0.63
2023-01-09T11:05:46.967Z,0.50
2023-01-09T11:08:13.503Z,0.80
2023-01-09T11:10:40.015Z,0.90
2023-01-09T11:13:06.503Z,0.50
2023-01-09T11:15:33.095Z,0.60
2023-01-09T11:17:59.636Z,1.47
2023-01-09T11:20:26.282Z,0.97
2023-01-09T11:22:53.234Z,0.70
2023-01-09T11:25:19.723Z,1.00
2023-01-09T11:27:46.208Z,0.70
2023-01-09T11:30:12.748Z,0.87
2023-01-09T11:32:39.302Z,0.60
2023-01-09T11:35:05.873Z,1.00
2023-01-09T11:37:32.390Z,0.90
2023-01-09T11:39:58.897Z,1.60
2023-01-09T11:42:44.194Z,0.80
2023-01-09T11:45:10.710Z,1.03
2023-01-09T11:47:37.203Z,1.03
2023-01-09T11:50:03.716Z,1.40
2023-01-09T11:52:30.216Z,1.70
2023-01-09T11:54:57.007Z,1.23
2023-01-09T11:57:23.517Z,1.40
2023-01-09T11:59:50.004Z,1.40
2023-01-09T12:02:16.878Z,1.83
2023-01-09T12:04:44.320Z,1.10
2023-01-09T12:07:10.810Z,1.57
2023-01-09T12:09:37.457Z,1.40
2023-01-09T12:12:04.002Z,2.27
2023-01-09T12:14:30.519Z,1.80
2023-01-09T12:16:56.999Z,1.57
2023-01-09T12:19:23.466Z,1.50
2023-01-09T12:21:50.019Z,1.43
2023-01-09T12:24:16.525Z,1.30
2023-01-09T12:26:43.049Z,1.87
2023-01-09T12:29:09.721Z,2.00
2023-01-09T12:31:37.050Z,1.33
2023-01-09T12:34:03.629Z,1.40
2023-01-09T12:36:30.120Z,1.47
2023-01-09T12:38:56.703Z,1.20
2023-01-09T12:41:23.359Z,1.33
2023-01-09T12:43:49.863Z,1.30
2023-01-09T12:46:16.399Z,2.03
2023-01-09T12:48:42.900Z,1.70
2023-01-09T12:51:09.724Z,1.80
2023-01-09T12:53:36.240Z,2.10
2023-01-09T12:56:02.724Z,1.60
2023-01-09T12:58:29.248Z,2.57
2023-01-09T13:00:55.764Z,2.10
2023-01-09T13:03:22.302Z,2.07
2023-01-09T13:05:48.781Z,1.47
2023-01-09T13:08:15.310Z,2.30
2023-01-09T13:10:42.045Z,1.80
2023-01-09T13:13:09.081Z,1.83
2023-01-09T13:15:35.729Z,1.90
2023-01-09T13:18:02.764Z,1.73
2023-01-09T13:20:29.273Z,1.70
2023-01-09T13:22:55.827Z,1.60
2023-01-09T13:25:22.317Z,1.73
2023-01-09T13:27:48.800Z,2.00
2023-01-09T13:30:15.340Z,2.10
2023-01-09T13:32:42.110Z,2.30
2023-01-09T13:35:08.621Z,1.93
2023-01-09T13:37:35.119Z,2.33
2023-01-09T13:40:01.712Z,1.80
2023-01-09T13:42:45.941Z,1.83
2023-01-09T13:45:12.515Z,1.60
2023-01-09T13:47:39.130Z,2.17
2023-01-09T13:50:05.682Z,1.80
2023-01-09T13:52:32.237Z,2.20
2023-01-09T13:54:58.821Z,1.47
2023-01-09T13:57:25.889Z,2.10
2023-01-09T13:59:52.372Z,1.97
2023-01-09T14:02:18.882Z,2.50
2023-01-09T14:04:45.495Z,2.47
2023-01-09T14:07:11.971Z,2.30
2023-01-09T14:09:38.725Z,1.80
2023-01-09T14:12:05.270Z,1.90
2023-01-09T14:14:33.048Z,1.77
2023-01-09T14:16:59.711Z,1.70
2023-01-09T14:19:26.285Z,2.33
2023-01-09T14:21:52.802Z,1.57
2023-01-09T14:24:19.487Z,1.77
2023-01-09T14:26:46.000Z,2.00
2023-01-09T14:29:12.556Z,1.30
2023-01-09T14:31:39.084Z,1.70
2023-01-09T14:34:23.473Z,2.00
2023-01-09T14:36:52.119Z,1.87
2023-01-09T14:39:18.683Z,1.70
2023-01-09T14:41:57.675Z,2.17
2023-01-09T14:44:24.260Z,1.60
2023-01-09T14:46:50.756Z,1.60
2023-01-09T14:49:17.388Z,1.80
2023-01-09T14:51:43.881Z,1.53
2023-01-09T14:54:10.420Z,2.60
2023-01-09T14:56:37.089Z,2.53
2023-01-09T14:59:03.725Z,2.63
2023-01-09T15:01:32.404Z,3.23
2023-01-09T15:03:59.493Z,1.87
2023-01-09T15:06:26.044Z,1.80
2023-01-09T15:08:52.617Z,2.00
2023-01-09T15:11:19.114Z,2.80
2023-01-09T15:13:45.597Z,1.87
2023-01-09T15:16:12.102Z,2.43
2023-01-09T15:18:38.599Z,1.37
2023-01-09T15:21:05.080Z,1.23
2023-01-09T15:23:31.617Z,2.07
2023-01-09T15:25:58.173Z,1.87
2023-01-09T15:28:25.188Z,1.80
2023-01-09T15:30:51.735Z,2.73
2023-01-09T15:33:18.238Z,3.40
2023-01-09T15:35:44.714Z,2.33
2023-01-09T15:38:11.185Z,2.80
2023-01-09T15:40:37.669Z,1.70
2023-01-09T15:43:04.202Z,2.57
2023-01-09T15:45:32.832Z,1.80
2023-01-09T15:47:59.461Z,1.97
2023-01-09T15:50:25.990Z,2.60
2023-01-09T15:52:52.528Z,2.13
2023-01-09T15:55:19.048Z,1.87
2023-01-09T15:57:45.528Z,1.57
2023-01-09T16:00:12.062Z,2.10
2023-01-09T16:02:57.262Z,2.07
2023-01-09T16:05:23.887Z,2.70
2023-01-09T16:07:50.390Z,2.60
2023-01-09T16:10:16.884Z,2.20
2023-01-09T16:12:43.366Z,2.80
2023-01-09T16:15:09.943Z,2.50
2023-01-09T16:17:36.505Z,2.60
2023-01-09T16:20:03.002Z,2.47
2023-01-09T16:22:29.533Z,2.70
2023-01-09T16:24:57.231Z,2.93
2023-01-09T16:27:27.106Z,1.90
2023-01-09T16:29:57.538Z,2.03
2023-01-09T16:32:25.153Z,2.00
2023-01-09T16:34:51.669Z,1.60
2023-01-09T16:37:18.214Z,2.00
2023-01-09T16:39:44.754Z,2.20
2023-01-09T16:42:31.616Z,2.10
2023-01-09T16:44:58.145Z,2.30
2023-01-09T16:47:24.639Z,2.73
2023-01-09T16:49:51.201Z,2.37
2023-01-09T16:52:17.760Z,3.20
2023-01-09T16:54:46.603Z,2.57
2023-01-09T16:57:13.150Z,3.23
2023-01-09T16:59:39.635Z,2.40
2023-01-09T17:02:06.131Z,3.13
2023-01-09T17:04:32.695Z,3.40
2023-01-09T17:06:59.237Z,2.67
2023-01-09T17:09:27.667Z,2.90
2023-01-09T17:11:54.294Z,3.00
2023-01-09T17:14:20.833Z,2.90
2023-01-09T17:16:47.451Z,3.43
2023-01-09T17:19:13.987Z,3.60
2023-01-09T17:21:40.502Z,2.93
2023-01-09T17:24:25.828Z,4.00
2023-01-09T17:27:10.957Z,3.40
2023-01-09T17:29:37.490Z,3.83
2023-01-09T17:32:04.108Z,3.70
2023-01-09T17:34:30.669Z,3.00
2023-01-09T17:36:57.223Z,3.70
2023-01-09T17:39:23.803Z,3.23
2023-01-09T17:41:50.302Z,2.80
2023-01-09T17:44:16.800Z,3.40
2023-01-09T17:46:43.398Z,3.07
2023-01-09T17:49:09.956Z,3.87
2023-01-09T17:51:36.500Z,2.80
2023-01-09T17:54:03.778Z,3.03
2023-01-09T17:56:30.345Z,3.20
2023-01-09T17:58:56.839Z,3.40
2023-01-09T18:01:23.431Z,2.93
2023-01-09T18:03:50.499Z,2.80
2023-01-09T18:06:17.078Z,3.50
2023-01-09T18:08:43.647Z,3.30
2023-01-09T18:11:10.225Z,3.50
2023-01-09T18:13:36.792Z,3.30
2023-01-09T18:16:03.363Z,4.20
2023-01-09T18:18:29.918Z,3.77
2023-01-09T18:20:56.460Z,4.17
2023-01-09T18:23:23.022Z,4.30
2023-01-09T18:25:49.555Z,4.90
2023-01-09T18:28:16.113Z,4.07
2023-01-09T18:30:44.914Z,3.90
2023-01-09T18:33:11.442Z,4.50
2023-01-09T18:35:37.929Z,5.10
2023-01-09T18:38:04.444Z,4.80
2023-01-09T18:40:32.933Z,4.40
2023-01-09T18:42:59.422Z,3.40
2023-01-09T18:45:25.922Z,4.53
2023-01-09T18:47:52.476Z,4.23
2023-01-09T18:50:19.108Z,3.10
2023-01-09T18:52:45.604Z,4.73
2023-01-09T18:55:12.108Z,3.00
2023-01-09T18:57:38.599Z,4.10
2023-01-09T19:00:05.086Z,3.80
2023-01-09T19:02:31.666Z,3.23
2023-01-09T19:04:58.147Z,2.97
2023-01-09T19:07:24.631Z,2.30
2023-01-09T19:09:51.137Z,2.13
2023-01-09T19:12:17.625Z,1.90
2023-01-09T19:14:44.216Z,1.60
2023-01-09T19:17:10.742Z,1.20
2023-01-09T19:19:37.299Z,1.90
2023-01-09T19:22:03.781Z,1.40
2023-01-09T19:24:32.064Z,1.57
2023-01-09T19:26:58.551Z,1.60
2023-01-09T19:29:25.050Z,2.40
2023-01-09T19:31:52.999Z,1.27
2023-01-09T19:34:19.608Z,1.70
2023-01-09T19:36:47.522Z,1.77
2023-01-09T19:39:14.059Z,4.10
2023-01-09T19:41:40.583Z,2.43
2023-01-09T19:44:07.305Z,3.60
2023-01-09T19:46:35.261Z,1.63
2023-01-09T19:49:04.642Z,3.00
2023-01-09T19:51:31.146Z,2.63
2023-01-09T19:56:30.110Z,3.23
2023-01-09T19:58:56.643Z,3.37
2023-01-09T20:01:24.404Z,4.03
2023-01-09T20:03:50.927Z,2.50
2023-01-09T20:06:18.830Z,4.57
2023-01-09T20:08:45.328Z,2.77
2023-01-09T20:11:11.829Z,3.10
2023-01-09T20:13:38.386Z,3.47
2023-01-09T20:16:04.985Z,3.00
2023-01-09T20:18:31.533Z,3.10
2023-01-09T20:20:58.065Z,2.83
2023-01-09T20:23:24.833Z,3.33
2023-01-09T20:25:51.387Z,3.20
2023-01-09T20:28:17.916Z,3.27
2023-01-09T20:30:44.499Z,3.13
2023-01-09T20:33:10.997Z,2.83
2023-01-09T20:35:37.452Z,2.40
2023-01-09T20:38:03.981Z,2.53
2023-01-09T20:40:30.974Z,2.47
2023-01-09T20:42:57.552Z,3.20
2023-01-09T20:45:24.165Z,3.70
2023-01-09T20:47:50.791Z,3.00
2023-01-09T20:50:17.335Z,3.60
2023-01-09T20:52:43.826Z,3.50
2023-01-09T20:55:10.402Z,4.40
2023-01-09T20:57:37.384Z,4.20
2023-01-09T21:00:03.885Z,3.60
2023-01-09T21:02:30.414Z,3.80
2023-01-09T21:04:56.916Z,4.23
2023-01-09T21:07:23.397Z,4.40
2023-01-09T21:09:49.906Z,7.23
2023-01-09T21:12:27.439Z,6.77
2023-01-09T21:14:54.173Z,5.37
2023-01-09T21:17:20.769Z,5.67
2023-01-09T21:19:48.284Z,6.70
2023-01-09T21:22:14.771Z,6.20
2023-01-09T21:24:41.292Z,6.10
2023-01-09T21:27:07.825Z,6.47
2023-01-09T21:29:34.321Z,7.03
2023-01-09T21:32:00.837Z,6.63
2023-01-09T21:34:27.418Z,7.40
2023-01-09T21:36:54.056Z,7.57
2023-01-09T21:39:20.629Z,6.83
2023-01-09T21:42:05.964Z,7.30
2023-01-09T21:44:51.123Z,7.10
2023-01-09T21:47:17.587Z,5.77
2023-01-09T21:49:44.129Z,6.13
2023-01-09T21:52:10.738Z,6.50
2023-01-09T21:54:37.238Z,6.00
2023-01-09T21:57:03.931Z,5.30
2023-01-09T21:59:30.429Z,5.67
2023-01-09T22:01:57.032Z,5.77
2023-01-09T22:04:23.616Z,5.70
2023-01-09T22:06:50.145Z,4.80
2023-01-09T22:09:16.651Z,5.83
2023-01-09T22:11:43.356Z,4.70
2023-01-09T22:14:09.835Z,5.27
2023-01-09T22:16:36.379Z,5.70
2023-01-09T22:19:02.879Z,6.93
2023-01-09T22:21:29.480Z,5.70
2023-01-09T22:23:56.430Z,6.60
2023-01-09T22:26:22.957Z,6.80
2023-01-09T22:28:49.432Z,5.60
2023-01-09T22:31:16.268Z,6.80
2023-01-09T22:33:42.775Z,5.87
2023-01-09T22:36:09.871Z,5.97
2023-01-09T22:38:36.743Z,6.50
2023-01-09T22:41:03.246Z,7.10
2023-01-09T22:43:29.728Z,6.93
2023-01-09T22:45:56.345Z,6.07
2023-01-09T22:48:22.847Z,7.00
2023-01-09T22:50:49.354Z,7.13
2023-01-09T22:53:15.821Z,5.87
2023-01-09T22:55:42.315Z,7.17
2023-01-09T22:58:08.853Z,6.57
2023-01-09T23:00:35.567Z,7.93
2023-01-09T23:03:02.154Z,8.60
2023-01-09T23:05:28.706Z,7.67
2023-01-09T23:07:55.214Z,7.33
2023-01-09T23:10:21.680Z,8.17
2023-01-09T23:12:50.159Z,6.60
2023-01-09T23:15:16.697Z,8.50
2023-01-09T23:17:43.157Z,8.23
2023-01-09T23:20:09.643Z,9.00
2023-01-09T23:22:36.120Z,9.23
2023-01-09T23:25:02.639Z,7.90
2023-01-09T23:27:29.134Z,8.70
2023-01-09T23:29:55.615Z,8.50
2023-01-09T23:32:22.125Z,8.40
2023-01-09T23:34:49.421Z,8.33
2023-01-09T23:37:15.942Z,9.33
2023-01-09T23:39:42.441Z,8.63
2023-01-09T23:42:27.867Z,9.93
2023-01-09T23:44:54.482Z,9.57
2023-01-09T23:47:20.995Z,9.33
2023-01-09T23:49:47.509Z,8.90
2023-01-09T23:52:13.991Z,9.10
2023-01-09T23:54:40.510Z,9.90
2023-01-09T23:57:07.055Z,9.43
2023-01-09T23:59:33.532Z,9.80
